sensor_id;sensor_type;location;lat;lon;timestamp;pressure;altitude;pressure_sealevel;temperature;humidity
54248;BME280;40161;39.768;2.722;2022-12-01T00:00:58;101220.78;;;10.91;99.78
54248;BME280;40161;39.768;2.722;2022-12-01T00:03:24;101234.31;;;10.84;100.00
54248;BME280;40161;39.768;2.722;2022-12-01T00:05:58;101249.75;;;10.88;100.00
54248;BME280;40161;39.768;2.722;2022-12-01T00:08:25;101232.91;;;10.90;100.00
54248;BME280;40161;39.768;2.722;2022-12-01T00:10:50;101243.66;;;10.95;100.00
54248;BME280;40161;39.768;2.722;2022-12-01T00:13:16;101201.56;;;10.75;100.00
54248;BME280;40161;39.768;2.722;2022-12-01T00:15:41;101235.13;;;11.00;100.00
54248;BME280;40161;39.768;2.722;2022-12-01T00:18:08;101238.81;;;11.08;100.00
54248;BME280;40161;39.768;2.722;2022-12-01T00:20:34;101232.28;;;10.97;98.85
54248;BME280;40161;39.768;2.722;2022-12-01T00:23:00;101235.91;;;11.01;100.00
54248;BME280;40161;39.768;2.722;2022-12-01T00:25:27;101232.66;;;10.95;100.00
54248;BME280;40161;39.768;2.722;2022-12-01T00:27:53;101216.28;;;10.83;100.00
54248;BME280;40161;39.768;2.722;2022-12-01T00:30:20;101227.25;;;10.99;100.00
54248;BME280;40161;39.768;2.722;2022-12-01T00:32:47;101222.53;;;10.99;100.00
54248;BME280;40161;39.768;2.722;2022-12-01T00:35:14;101219.00;;;10.99;98.42
54248;BME280;40161;39.768;2.722;2022-12-01T00:37:39;101213.88;;;10.81;98.91
54248;BME280;40161;39.768;2.722;2022-12-01T00:40:06;101200.59;;;10.83;99.46
54248;BME280;40161;39.768;2.722;2022-12-01T00:42:32;101208.66;;;10.76;98.85
54248;BME280;40161;39.768;2.722;2022-12-01T00:44:58;101197.44;;;10.50;99.47
54248;BME280;40161;39.768;2.722;2022-12-01T00:47:23;101189.91;;;10.47;100.00
54248;BME280;40161;39.768;2.722;2022-12-01T00:49:49;101218.50;;;10.77;100.00
54248;BME280;40161;39.768;2.722;2022-12-01T00:52:17;101214.06;;;10.57;100.00
54248;BME280;40161;39.768;2.722;2022-12-01T00:54:43;101215.91;;;10.53;100.00
54248;BME280;40161;39.768;2.722;2022-12-01T00:57:10;101216.91;;;10.60;100.00
54248;BME280;40161;39.768;2.722;2022-12-01T00:59:36;101216.09;;;10.76;100.00
54248;BME280;40161;39.768;2.722;2022-12-01T01:02:06;101213.19;;;10.84;100.00
54248;BME280;40161;39.768;2.722;2022-12-01T01:04:33;101197.50;;;10.69;100.00
54248;BME280;40161;39.768;2.722;2022-12-01T01:06:59;101209.97;;;10.82;100.00
54248;BME280;40161;39.768;2.722;2022-12-01T01:09:25;101187.16;;;10.47;100.00
54248;BME280;40161;39.768;2.722;2022-12-01T01:11:51;101197.16;;;10.55;100.00
54248;BME280;40161;39.768;2.722;2022-12-01T01:14:17;101212.19;;;10.45;100.00
54248;BME280;40161;39.768;2.722;2022-12-01T01:16:43;101186.53;;;10.37;100.00
54248;BME280;40161;39.768;2.722;2022-12-01T01:19:08;101161.09;;;10.25;100.00
54248;BME280;40161;39.768;2.722;2022-12-01T01:21:34;101166.63;;;10.40;100.00
54248;BME280;40161;39.768;2.722;2022-12-01T01:23:59;101161.03;;;10.37;100.00
54248;BME280;40161;39.768;2.722;2022-12-01T01:26:28;101196.44;;;10.42;100.00
54248;BME280;40161;39.768;2.722;2022-12-01T01:29:00;101207.50;;;10.61;100.00
54248;BME280;40161;39.768;2.722;2022-12-01T01:31:28;101197.25;;;10.58;100.00
54248;BME280;40161;39.768;2.722;2022-12-01T01:33:55;101203.19;;;10.60;100.00
54248;BME280;40161;39.768;2.722;2022-12-01T01:36:21;101193.78;;;10.45;100.00
54248;BME280;40161;39.768;2.722;2022-12-01T01:38:47;101188.28;;;10.45;100.00
54248;BME280;40161;39.768;2.722;2022-12-01T01:41:16;101198.81;;;10.59;100.00
54248;BME280;40161;39.768;2.722;2022-12-01T01:43:54;101183.88;;;10.57;100.00
54248;BME280;40161;39.768;2.722;2022-12-01T01:46:22;101210.84;;;10.39;100.00
54248;BME280;40161;39.768;2.722;2022-12-01T01:48:56;101204.50;;;10.51;100.00
54248;BME280;40161;39.768;2.722;2022-12-01T01:51:51;101200.28;;;10.53;100.00
54248;BME280;40161;39.768;2.722;2022-12-01T01:54:20;101187.50;;;10.45;100.00
54248;BME280;40161;39.768;2.722;2022-12-01T01:56:49;101185.03;;;10.40;100.00
54248;BME280;40161;39.768;2.722;2022-12-01T01:59:19;101186.47;;;10.50;100.00
54248;BME280;40161;39.768;2.722;2022-12-01T02:01:55;101192.72;;;10.66;100.00
54248;BME280;40161;39.768;2.722;2022-12-01T02:04:22;101176.88;;;10.59;100.00
54248;BME280;40161;39.768;2.722;2022-12-01T02:06:49;101187.69;;;10.68;100.00
54248;BME280;40161;39.768;2.722;2022-12-01T02:09:15;101190.25;;;10.61;100.00
54248;BME280;40161;39.768;2.722;2022-12-01T02:14:48;101170.25;;;10.60;100.00
54248;BME280;40161;39.768;2.722;2022-12-01T02:22:43;101144.22;;;10.54;100.00
54248;BME280;40161;39.768;2.722;2022-12-01T02:33:42;101177.69;;;10.60;100.00
54248;BME280;40161;39.768;2.722;2022-12-01T02:36:16;101179.25;;;10.77;100.00
54248;BME280;40161;39.768;2.722;2022-12-01T02:38:50;101166.25;;;10.74;100.00
54248;BME280;40161;39.768;2.722;2022-12-01T02:41:24;101170.34;;;10.64;100.00
54248;BME280;40161;39.768;2.722;2022-12-01T02:49:11;101165.25;;;10.82;100.00
54248;BME280;40161;39.768;2.722;2022-12-01T02:51:40;101152.78;;;10.84;100.00
54248;BME280;40161;39.768;2.722;2022-12-01T02:54:09;101169.19;;;11.00;100.00
54248;BME280;40161;39.768;2.722;2022-12-01T02:56:36;101172.91;;;11.08;100.00
54248;BME280;40161;39.768;2.722;2022-12-01T02:59:08;101140.91;;;10.80;98.14
54248;BME280;40161;39.768;2.722;2022-12-01T03:09:54;101165.06;;;11.26;97.18
54248;BME280;40161;39.768;2.722;2022-12-01T03:18:00;101150.94;;;11.08;96.92
54248;BME280;40161;39.768;2.722;2022-12-01T03:23:25;101144.31;;;11.09;98.03
54248;BME280;40161;39.768;2.722;2022-12-01T03:25:53;101112.00;;;10.86;98.99
54248;BME280;40161;39.768;2.722;2022-12-01T03:28:23;101144.44;;;11.16;99.25
54248;BME280;40161;39.768;2.722;2022-12-01T03:30:53;101144.69;;;11.27;99.36
54248;BME280;40161;39.768;2.722;2022-12-01T03:33:24;101149.44;;;11.30;97.72
54248;BME280;40161;39.768;2.722;2022-12-01T03:35:58;101103.38;;;11.04;97.20
54248;BME280;40161;39.768;2.722;2022-12-01T03:38:28;101131.66;;;11.24;96.72
54248;BME280;40161;39.768;2.722;2022-12-01T03:41:12;101115.47;;;11.19;96.38
54248;BME280;40161;39.768;2.722;2022-12-01T03:43:43;101147.78;;;11.25;97.63
54248;BME280;40161;39.768;2.722;2022-12-01T03:46:28;101142.00;;;11.30;97.62
54248;BME280;40161;39.768;2.722;2022-12-01T03:48:57;101141.13;;;11.26;97.02
54248;BME280;40161;39.768;2.722;2022-12-01T03:56:25;101139.38;;;10.99;100.00
54248;BME280;40161;39.768;2.722;2022-12-01T03:58:56;101131.28;;;10.71;100.00
54248;BME280;40161;39.768;2.722;2022-12-01T04:01:22;101130.56;;;10.74;100.00
54248;BME280;40161;39.768;2.722;2022-12-01T04:03:48;101109.88;;;10.60;100.00
54248;BME280;40161;39.768;2.722;2022-12-01T04:06:14;101132.25;;;10.78;100.00
54248;BME280;40161;39.768;2.722;2022-12-01T04:08:39;101134.66;;;10.64;100.00
54248;BME280;40161;39.768;2.722;2022-12-01T04:11:05;101125.50;;;10.76;100.00
54248;BME280;40161;39.768;2.722;2022-12-01T04:13:51;101135.31;;;10.77;100.00
54248;BME280;40161;39.768;2.722;2022-12-01T04:16:16;101131.72;;;10.73;100.00
54248;BME280;40161;39.768;2.722;2022-12-01T04:18:42;101121.50;;;10.73;100.00
54248;BME280;40161;39.768;2.722;2022-12-01T04:21:08;101125.16;;;10.77;100.00
54248;BME280;40161;39.768;2.722;2022-12-01T04:23:33;101120.09;;;10.79;100.00
54248;BME280;40161;39.768;2.722;2022-12-01T04:26:17;101111.59;;;10.84;100.00
54248;BME280;40161;39.768;2.722;2022-12-01T04:28:43;101121.56;;;10.92;100.00
54248;BME280;40161;39.768;2.722;2022-12-01T04:31:09;101127.63;;;10.82;100.00
54248;BME280;40161;39.768;2.722;2022-12-01T04:33:34;101087.28;;;10.67;100.00
54248;BME280;40161;39.768;2.722;2022-12-01T04:36:00;101124.75;;;10.95;100.00
54248;BME280;40161;39.768;2.722;2022-12-01T04:38:26;101058.47;;;10.41;100.00
54248;BME280;40161;39.768;2.722;2022-12-01T04:40:51;101083.91;;;10.74;99.89
54248;BME280;40161;39.768;2.722;2022-12-01T04:43:17;101096.41;;;10.90;99.83
54248;BME280;40161;39.768;2.722;2022-12-01T04:45:43;101085.00;;;10.88;97.45
54248;BME280;40161;39.768;2.722;2022-12-01T04:48:08;101107.44;;;11.10;97.43
54248;BME280;40161;39.768;2.722;2022-12-01T04:50:34;101082.19;;;11.04;96.43
54248;BME280;40161;39.768;2.722;2022-12-01T04:53:00;101035.00;;;10.79;94.59
54248;BME280;40161;39.768;2.722;2022-12-01T04:55:25;101116.69;;;11.21;94.40
54248;BME280;40161;39.768;2.722;2022-12-01T04:57:51;101098.53;;;11.16;95.22
54248;BME280;40161;39.768;2.722;2022-12-01T05:00:16;101073.88;;;11.01;96.02
54248;BME280;40161;39.768;2.722;2022-12-01T05:02:42;101090.81;;;11.22;95.43
54248;BME280;40161;39.768;2.722;2022-12-01T05:05:09;101125.66;;;11.37;95.80
54248;BME280;40161;39.768;2.722;2022-12-01T05:07:35;101115.03;;;11.36;95.72
54248;BME280;40161;39.768;2.722;2022-12-01T05:10:01;101097.25;;;11.30;95.83
54248;BME280;40161;39.768;2.722;2022-12-01T05:12:26;101084.03;;;11.16;95.91
54248;BME280;40161;39.768;2.722;2022-12-01T05:14:52;101123.78;;;11.41;95.32
54248;BME280;40161;39.768;2.722;2022-12-01T05:17:17;101106.34;;;11.34;95.75
54248;BME280;40161;39.768;2.722;2022-12-01T05:19:43;101067.31;;;11.05;94.60
54248;BME280;40161;39.768;2.722;2022-12-01T05:22:27;101121.03;;;11.41;94.74
54248;BME280;40161;39.768;2.722;2022-12-01T05:24:52;101108.06;;;11.42;94.89
54248;BME280;40161;39.768;2.722;2022-12-01T05:27:18;101110.81;;;11.42;94.05
54248;BME280;40161;39.768;2.722;2022-12-01T05:29:44;101119.72;;;11.55;93.70
54248;BME280;40161;39.768;2.722;2022-12-01T05:32:09;101094.06;;;11.47;93.78
54248;BME280;40161;39.768;2.722;2022-12-01T05:34:34;101119.44;;;11.60;92.88
54248;BME280;40161;39.768;2.722;2022-12-01T05:37:00;101106.34;;;11.53;92.51
54248;BME280;40161;39.768;2.722;2022-12-01T05:39:25;101106.34;;;11.34;93.53
54248;BME280;40161;39.768;2.722;2022-12-01T05:41:51;101075.28;;;11.30;94.41
54248;BME280;40161;39.768;2.722;2022-12-01T05:44:16;101069.78;;;11.30;93.09
54248;BME280;40161;39.768;2.722;2022-12-01T05:46:42;101092.63;;;11.53;92.77
54248;BME280;40161;39.768;2.722;2022-12-01T05:49:07;101090.22;;;11.52;91.71
54248;BME280;40161;39.768;2.722;2022-12-01T05:51:33;101089.88;;;11.53;91.61
54248;BME280;40161;39.768;2.722;2022-12-01T05:53:59;101122.03;;;11.72;92.43
54248;BME280;40161;39.768;2.722;2022-12-01T05:56:25;101123.25;;;11.75;91.37
54248;BME280;40161;39.768;2.722;2022-12-01T05:58:50;101078.81;;;11.50;90.47
54248;BME280;40161;39.768;2.722;2022-12-01T06:01:16;101117.75;;;11.75;89.72
54248;BME280;40161;39.768;2.722;2022-12-01T06:03:42;101123.13;;;11.68;88.91
54248;BME280;40161;39.768;2.722;2022-12-01T06:06:07;101112.59;;;11.73;89.77
54248;BME280;40161;39.768;2.722;2022-12-01T06:08:33;101068.41;;;11.39;88.63
54248;BME280;40161;39.768;2.722;2022-12-01T06:10:58;101124.28;;;11.67;87.59
54248;BME280;40161;39.768;2.722;2022-12-01T06:13:24;101079.53;;;11.47;87.88
54248;BME280;40161;39.768;2.722;2022-12-01T06:16:00;101085.38;;;11.45;87.18
54248;BME280;40161;39.768;2.722;2022-12-01T06:18:29;101140.97;;;11.77;88.23
54248;BME280;40161;39.768;2.722;2022-12-01T06:20:55;101108.00;;;11.58;88.79
54248;BME280;40161;39.768;2.722;2022-12-01T06:23:21;101081.69;;;11.37;86.92
54248;BME280;40161;39.768;2.722;2022-12-01T06:25:46;101109.25;;;11.60;84.95
54248;BME280;40161;39.768;2.722;2022-12-01T06:28:12;101126.34;;;11.73;85.68
54248;BME280;40161;39.768;2.722;2022-12-01T06:30:38;101150.00;;;11.97;86.22
54248;BME280;40161;39.768;2.722;2022-12-01T06:33:03;101122.81;;;11.73;84.35
54248;BME280;40161;39.768;2.722;2022-12-01T06:35:29;101148.34;;;11.93;82.71
54248;BME280;40161;39.768;2.722;2022-12-01T06:37:54;101144.94;;;11.99;82.94
54248;BME280;40161;39.768;2.722;2022-12-01T06:40:20;101137.13;;;12.01;83.71
54248;BME280;40161;39.768;2.722;2022-12-01T06:42:45;101130.22;;;11.88;82.60
54248;BME280;40161;39.768;2.722;2022-12-01T06:45:11;101155.47;;;12.17;81.09
54248;BME280;40161;39.768;2.722;2022-12-01T06:47:36;101148.00;;;12.17;79.71
54248;BME280;40161;39.768;2.722;2022-12-01T06:50:04;101149.81;;;12.29;81.09
54248;BME280;40161;39.768;2.722;2022-12-01T06:52:33;101140.66;;;12.25;81.31
54248;BME280;40161;39.768;2.722;2022-12-01T06:54:59;101154.38;;;12.21;82.85
54248;BME280;40161;39.768;2.722;2022-12-01T06:57:25;101142.91;;;11.96;83.83
54248;BME280;40161;39.768;2.722;2022-12-01T06:59:50;101154.31;;;12.18;84.16
54248;BME280;40161;39.768;2.722;2022-12-01T07:02:16;101155.03;;;12.15;83.66
54248;BME280;40161;39.768;2.722;2022-12-01T07:04:41;101169.00;;;12.25;83.39
54248;BME280;40161;39.768;2.722;2022-12-01T07:07:07;101132.09;;;12.07;82.27
54248;BME280;40161;39.768;2.722;2022-12-01T07:09:33;101153.56;;;12.21;82.86
54248;BME280;40161;39.768;2.722;2022-12-01T07:11:59;101147.22;;;12.17;81.87
54248;BME280;40161;39.768;2.722;2022-12-01T07:14:25;101176.66;;;12.35;80.63
54248;BME280;40161;39.768;2.722;2022-12-01T07:16:51;101152.16;;;12.30;80.49
54248;BME280;40161;39.768;2.722;2022-12-01T07:19:16;101155.47;;;12.40;80.61
54248;BME280;40161;39.768;2.722;2022-12-01T07:21:42;101169.41;;;12.50;80.62
54248;BME280;40161;39.768;2.722;2022-12-01T07:24:08;101180.84;;;12.52;81.08
54248;BME280;40161;39.768;2.722;2022-12-01T07:26:34;101178.47;;;12.51;79.49
54248;BME280;40161;39.768;2.722;2022-12-01T07:28:59;101171.78;;;12.52;79.85
54248;BME280;40161;39.768;2.722;2022-12-01T07:31:25;101182.56;;;12.61;80.07
54248;BME280;40161;39.768;2.722;2022-12-01T07:33:51;101196.88;;;12.70;79.79
54248;BME280;40161;39.768;2.722;2022-12-01T07:36:16;101194.53;;;12.72;78.35
54248;BME280;40161;39.768;2.722;2022-12-01T07:38:42;101188.25;;;12.71;77.74
54248;BME280;40161;39.768;2.722;2022-12-01T07:41:13;101158.34;;;12.47;78.01
54248;BME280;40161;39.768;2.722;2022-12-01T07:43:39;101193.41;;;12.76;77.34
54248;BME280;40161;39.768;2.722;2022-12-01T07:46:09;101202.44;;;12.73;77.85
54248;BME280;40161;39.768;2.722;2022-12-01T07:48:36;101183.34;;;12.61;76.06
54248;BME280;40161;39.768;2.722;2022-12-01T07:51:03;101159.88;;;12.44;75.78
54248;BME280;40161;39.768;2.722;2022-12-01T07:53:29;101206.97;;;12.62;75.39
54248;BME280;40161;39.768;2.722;2022-12-01T07:55:55;101158.66;;;12.42;76.14
54248;BME280;40161;39.768;2.722;2022-12-01T07:58:20;101200.09;;;12.75;76.39
54248;BME280;40161;39.768;2.722;2022-12-01T08:00:46;101205.19;;;12.73;75.68
54248;BME280;40161;39.768;2.722;2022-12-01T08:03:12;101200.47;;;12.74;76.33
54248;BME280;40161;39.768;2.722;2022-12-01T08:05:38;101209.94;;;12.76;75.92
54248;BME280;40161;39.768;2.722;2022-12-01T08:08:03;101204.31;;;12.69;74.96
54248;BME280;40161;39.768;2.722;2022-12-01T08:10:29;101208.69;;;12.70;75.33
54248;BME280;40161;39.768;2.722;2022-12-01T08:12:55;101218.25;;;12.80;75.75
54248;BME280;40161;39.768;2.722;2022-12-01T08:15:20;101181.34;;;12.58;76.07
54248;BME280;40161;39.768;2.722;2022-12-01T08:17:46;101208.81;;;12.77;74.96
54248;BME280;40161;39.768;2.722;2022-12-01T08:20:11;101209.94;;;12.76;74.51
54248;BME280;40161;39.768;2.722;2022-12-01T08:22:37;101215.50;;;12.80;73.67
54248;BME280;40161;39.768;2.722;2022-12-01T08:25:03;101216.06;;;12.89;75.23
54248;BME280;40161;39.768;2.722;2022-12-01T08:27:28;101218.88;;;12.93;74.53
54248;BME280;40161;39.768;2.722;2022-12-01T08:29:54;101185.88;;;12.70;73.16
54248;BME280;40161;39.768;2.722;2022-12-01T08:32:19;101222.47;;;12.97;73.52
54248;BME280;40161;39.768;2.722;2022-12-01T08:34:45;101225.16;;;12.93;72.82
54248;BME280;40161;39.768;2.722;2022-12-01T08:37:11;101230.69;;;12.93;72.53
54248;BME280;40161;39.768;2.722;2022-12-01T08:39:36;101215.66;;;12.87;71.99
54248;BME280;40161;39.768;2.722;2022-12-01T08:42:02;101229.69;;;13.05;72.47
54248;BME280;40161;39.768;2.722;2022-12-01T08:44:27;101216.59;;;12.98;72.39
54248;BME280;40161;39.768;2.722;2022-12-01T08:46:53;101227.47;;;12.88;70.46
54248;BME280;40161;39.768;2.722;2022-12-01T08:49:18;101223.53;;;12.89;71.67
54248;BME280;40161;39.768;2.722;2022-12-01T08:51:44;101229.72;;;12.82;70.54
54248;BME280;40161;39.768;2.722;2022-12-01T08:54:10;101219.94;;;12.85;71.80
54248;BME280;40161;39.768;2.722;2022-12-01T08:56:39;101215.50;;;12.80;71.15
54248;BME280;40161;39.768;2.722;2022-12-01T08:59:05;101219.09;;;12.80;71.04
54248;BME280;40161;39.768;2.722;2022-12-01T09:01:31;101226.06;;;12.74;70.05
54248;BME280;40161;39.768;2.722;2022-12-01T09:03:58;101205.38;;;12.61;70.04
54248;BME280;40161;39.768;2.722;2022-12-01T09:06:31;101249.50;;;12.88;70.75
54248;BME280;40161;39.768;2.722;2022-12-01T09:09:00;101234.44;;;12.81;70.47
54248;BME280;40161;39.768;2.722;2022-12-01T09:11:25;101231.69;;;12.81;71.76
54248;BME280;40161;39.768;2.722;2022-12-01T09:13:51;101245.56;;;12.89;70.78
54248;BME280;40161;39.768;2.722;2022-12-01T09:16:16;101209.94;;;12.76;71.50
54248;BME280;40161;39.768;2.722;2022-12-01T09:18:44;101235.84;;;12.95;70.83
54248;BME280;40161;39.768;2.722;2022-12-01T09:23:36;101252.81;;;13.00;70.83
54248;BME280;40161;39.768;2.722;2022-12-01T09:26:02;101256.25;;;12.94;70.63
54248;BME280;40161;39.768;2.722;2022-12-01T09:28:27;101235.63;;;12.80;71.31
54248;BME280;40161;39.768;2.722;2022-12-01T09:30:52;101248.25;;;12.85;70.58
54248;BME280;40161;39.768;2.722;2022-12-01T09:33:18;101237.19;;;12.81;71.24
54248;BME280;40161;39.768;2.722;2022-12-01T09:35:43;101258.59;;;12.92;69.00
54248;BME280;40161;39.768;2.722;2022-12-01T09:38:09;101256.75;;;12.99;70.32
54248;BME280;40161;39.768;2.722;2022-12-01T09:40:37;101246.97;;;13.02;70.68
54248;BME280;40161;39.768;2.722;2022-12-01T09:43:09;101256.88;;;13.06;69.88
54248;BME280;40161;39.768;2.722;2022-12-01T09:45:39;101247.38;;;13.04;69.70
54248;BME280;40161;39.768;2.722;2022-12-01T09:48:17;101255.00;;;13.14;70.26
54248;BME280;40161;39.768;2.722;2022-12-01T09:50:45;101265.06;;;13.26;70.39
54248;BME280;40161;39.768;2.722;2022-12-01T09:53:16;101225.88;;;13.13;69.00
54248;BME280;40161;39.768;2.722;2022-12-01T09:55:44;101250.16;;;13.30;69.26
54248;BME280;40161;39.768;2.722;2022-12-01T09:58:17;101245.41;;;13.27;69.48
54248;BME280;40161;39.768;2.722;2022-12-01T10:00:45;101243.06;;;13.29;69.50
54248;BME280;40161;39.768;2.722;2022-12-01T10:03:37;101248.25;;;13.35;70.55
54248;BME280;40161;39.768;2.722;2022-12-01T10:06:28;101242.75;;;13.35;70.66
54248;BME280;40161;39.768;2.722;2022-12-01T10:09:31;101247.09;;;13.36;71.34
54248;BME280;40161;39.768;2.722;2022-12-01T10:12:12;101249.88;;;13.36;72.89
54248;BME280;40161;39.768;2.722;2022-12-01T10:14:38;101253.31;;;13.29;73.72
54248;BME280;40161;39.768;2.722;2022-12-01T10:22:47;101237.28;;;13.12;77.04
54248;BME280;40161;39.768;2.722;2022-12-01T10:25:22;101203.50;;;12.92;77.42
54248;BME280;40161;39.768;2.722;2022-12-01T10:30:50;101227.34;;;13.07;70.29
54248;BME280;40161;39.768;2.722;2022-12-01T10:33:29;101224.53;;;13.26;71.93
54248;BME280;40161;39.768;2.722;2022-12-01T10:35:58;101219.72;;;13.23;70.23
54248;BME280;40161;39.768;2.722;2022-12-01T10:38:30;101222.56;;;13.27;69.35
54248;BME280;40161;39.768;2.722;2022-12-01T10:40:59;101218.28;;;13.29;71.94
54248;BME280;40161;39.768;2.722;2022-12-01T10:43:37;101205.94;;;13.23;69.98
54248;BME280;40161;39.768;2.722;2022-12-01T10:46:40;101219.16;;;13.37;68.93
54248;BME280;40161;39.768;2.722;2022-12-01T10:49:15;101178.72;;;13.18;69.11
54248;BME280;40161;39.768;2.722;2022-12-01T10:51:55;101207.53;;;13.51;68.87
54248;BME280;40161;39.768;2.722;2022-12-01T10:54:27;101206.72;;;13.50;68.96
54248;BME280;40161;39.768;2.722;2022-12-01T10:56:56;101175.34;;;13.28;68.60
54248;BME280;40161;39.768;2.722;2022-12-01T11:01:51;101196.88;;;13.49;67.80
54248;BME280;40161;39.768;2.722;2022-12-01T11:06:57;101197.09;;;13.67;69.21
54248;BME280;40161;39.768;2.722;2022-12-01T11:09:27;101182.88;;;13.65;68.56
54248;BME280;40161;39.768;2.722;2022-12-01T11:11:58;101188.94;;;13.78;69.01
54248;BME280;40161;39.768;2.722;2022-12-01T11:14:47;101191.34;;;13.83;67.80
54248;BME280;40161;39.768;2.722;2022-12-01T11:17:40;101180.72;;;13.82;68.11
54248;BME280;40161;39.768;2.722;2022-12-01T11:20:37;101190.56;;;13.83;68.14
54248;BME280;40161;39.768;2.722;2022-12-01T11:28:30;101186.91;;;13.71;69.05
54248;BME280;40161;39.768;2.722;2022-12-01T11:31:00;101181.38;;;13.71;68.55
54248;BME280;40161;39.768;2.722;2022-12-01T11:33:27;101194.03;;;13.76;69.92
54248;BME280;40161;39.768;2.722;2022-12-01T11:35:54;101189.72;;;13.78;69.99
54248;BME280;40161;39.768;2.722;2022-12-01T11:38:23;101178.25;;;13.73;68.80
54248;BME280;40161;39.768;2.722;2022-12-01T11:40:54;101176.03;;;13.86;69.15
54248;BME280;40161;39.768;2.722;2022-12-01T11:43:27;101182.75;;;13.88;69.69
54248;BME280;40161;39.768;2.722;2022-12-01T11:45:54;101181.75;;;14.48;69.84
54248;BME280;40161;39.768;2.722;2022-12-01T11:48:29;101173.28;;;14.71;67.11
54248;BME280;40161;39.768;2.722;2022-12-01T11:53:34;101177.31;;;15.50;66.98
54248;BME280;40161;39.768;2.722;2022-12-01T11:56:13;101182.25;;;15.12;63.34
54248;BME280;40161;39.768;2.722;2022-12-01T11:58:42;101169.53;;;14.93;65.47
54248;BME280;40161;39.768;2.722;2022-12-01T12:09:29;101149.28;;;14.34;62.87
54248;BME280;40161;39.768;2.722;2022-12-01T12:12:45;101156.72;;;14.27;63.03
54248;BME280;40161;39.768;2.722;2022-12-01T12:26:40;101143.97;;;14.11;64.48
54248;BME280;40161;39.768;2.722;2022-12-01T12:29:16;101154.63;;;14.13;64.95
54248;BME280;40161;39.768;2.722;2022-12-01T12:31:58;101141.56;;;14.10;65.51
54248;BME280;40161;39.768;2.722;2022-12-01T12:40:40;101133.13;;;13.92;70.18
54248;BME280;40161;39.768;2.722;2022-12-01T12:43:23;101128.03;;;13.94;69.86
54248;BME280;40161;39.768;2.722;2022-12-01T12:46:07;101131.16;;;13.92;70.29
54248;BME280;40161;39.768;2.722;2022-12-01T12:51:49;101124.41;;;13.86;71.23
54248;BME280;40161;39.768;2.722;2022-12-01T12:54:35;101121.28;;;13.88;72.30
54248;BME280;40161;39.768;2.722;2022-12-01T12:57:17;101108.44;;;13.69;67.02
54248;BME280;40161;39.768;2.722;2022-12-01T13:00:03;101119.63;;;13.83;66.99
54248;BME280;40161;39.768;2.722;2022-12-01T13:02:43;101124.00;;;13.84;67.69
54248;BME280;40161;39.768;2.722;2022-12-01T13:05:26;101122.03;;;13.85;69.15
54248;BME280;40161;39.768;2.722;2022-12-01T13:07:58;101109.38;;;13.80;68.45
54248;BME280;40161;39.768;2.722;2022-12-01T13:10:51;101116.53;;;13.88;68.90
54248;BME280;40161;39.768;2.722;2022-12-01T13:15:53;101084.09;;;13.74;70.24
54248;BME280;40161;39.768;2.722;2022-12-01T13:18:40;101113.47;;;13.97;71.30
54248;BME280;40161;39.768;2.722;2022-12-01T13:21:16;101113.06;;;13.95;72.28
54248;BME280;40161;39.768;2.722;2022-12-01T13:23:44;101087.19;;;13.69;73.12
54248;BME280;40161;39.768;2.722;2022-12-01T13:26:11;101095.56;;;13.76;73.94
54248;BME280;40161;39.768;2.722;2022-12-01T13:28:45;101100.13;;;13.65;70.01
54248;BME280;40161;39.768;2.722;2022-12-01T13:31:13;101077.25;;;13.61;72.49
54248;BME280;40161;39.768;2.722;2022-12-01T13:36:23;101096.59;;;13.65;74.07
54248;BME280;40161;39.768;2.722;2022-12-01T13:38:58;101100.56;;;13.67;74.62
54248;BME280;40161;39.768;2.722;2022-12-01T13:41:34;101064.00;;;13.37;76.31
54248;BME280;40161;39.768;2.722;2022-12-01T13:49:44;101103.41;;;13.41;79.89
54248;BME280;40161;39.768;2.722;2022-12-01T13:57:52;101108.84;;;13.34;83.37
54248;BME280;40161;39.768;2.722;2022-12-01T14:00:37;101097.00;;;13.29;84.01
54248;BME280;40161;39.768;2.722;2022-12-01T14:06:08;101108.78;;;13.00;87.46
54248;BME280;40161;39.768;2.722;2022-12-01T14:08:45;101103.97;;;12.93;89.32
54248;BME280;40161;39.768;2.722;2022-12-01T14:11:21;101106.03;;;13.00;90.68
54248;BME280;40161;39.768;2.722;2022-12-01T14:16:53;101107.16;;;12.95;92.40
54248;BME280;40161;39.768;2.722;2022-12-01T14:19:49;101098.78;;;12.88;94.49
54248;BME280;40161;39.768;2.722;2022-12-01T14:22:33;101099.75;;;13.03;95.38
54248;BME280;40161;39.768;2.722;2022-12-01T14:34:13;101112.88;;;13.13;96.04
54248;BME280;40161;39.768;2.722;2022-12-01T14:36:47;101108.09;;;12.80;96.81
54248;BME280;40161;39.768;2.722;2022-12-01T14:39:17;101102.59;;;12.80;98.89
54248;BME280;40161;39.768;2.722;2022-12-01T14:47:15;101116.16;;;12.92;100.00
54248;BME280;40161;39.768;2.722;2022-12-01T14:50:10;101115.06;;;13.00;100.00
54248;BME280;40161;39.768;2.722;2022-12-01T14:52:52;101119.47;;;13.05;99.39
54248;BME280;40161;39.768;2.722;2022-12-01T14:55:26;101110.69;;;12.96;99.04
54248;BME280;40161;39.768;2.722;2022-12-01T14:57:59;101119.34;;;12.94;98.49
54248;BME280;40161;39.768;2.722;2022-12-01T15:00:26;101120.19;;;12.98;99.57
54248;BME280;40161;39.768;2.722;2022-12-01T15:02:54;101120.97;;;12.99;100.00
54248;BME280;40161;39.768;2.722;2022-12-01T15:05:28;101117.81;;;13.00;99.47
54248;BME280;40161;39.768;2.722;2022-12-01T15:08:00;101122.41;;;12.89;97.14
54248;BME280;40161;39.768;2.722;2022-12-01T15:10:36;101126.88;;;12.71;95.61
54248;BME280;40161;39.768;2.722;2022-12-01T15:13:21;101125.75;;;12.75;97.25
54248;BME280;40161;39.768;2.722;2022-12-01T15:15:50;101071.66;;;12.60;98.44